Time;durP1;ratioP1;P1;durP2;ratioP2;P2;SDS_P1;SDS_P2;PMS_P1;PMS_P2;Temp;Humidity;BMP_temperature;BMP_pressure;BME280_temperature;BME280_humidity;BME280_pressure;Samples;Min_cycle;Max_cycle;Signal;HPM_P1;HPM_P2
2021/12/14 00:02:02;;;;;;;9.27;5.17;;;2.70;99.90;;;;;;5092372;28;20455;-69
2021/12/14 00:04:33;;;;;;;8.27;5.10;;;2.70;99.90;;;;;;5092960;28;20457;-71
2021/12/14 00:07:03;;;;;;;6.93;5.40;;;2.60;99.90;;;;;;5092803;28;20470;-71
2021/12/14 00:09:35;;;;;;;6.57;4.83;;;2.70;99.90;;;;;;5092581;28;20839;-70
2021/12/14 00:12:18;;;;;;;6.40;5.07;;;2.80;99.90;;;;;;5093678;28;20482;-71
2021/12/14 00:15:04;;;;;;;8.43;5.67;;;2.80;99.90;;;;;;5091197;28;20448;-70
2021/12/14 00:17:38;;;;;;;6.67;4.40;;;2.80;99.90;;;;;;5107298;28;21064;-69
2021/12/14 00:20:15;;;;;;;7.73;5.43;;;2.90;99.90;;;;;;5092447;28;20450;-70
2021/12/14 00:25:29;;;;;;;8.00;5.00;;;2.80;99.90;;;;;;5091989;28;20447;-70
2021/12/14 00:27:59;;;;;;;9.10;6.10;;;2.80;99.90;;;;;;5092013;28;20476;-71
2021/12/14 00:30:27;;;;;;;8.17;5.47;;;2.90;99.90;;;;;;5091957;28;20985;-70
2021/12/14 00:32:55;;;;;;;6.50;5.10;;;3.00;99.90;;;;;;5092178;28;20503;-70
2021/12/14 00:35:22;;;;;;;6.70;5.10;;;3.00;99.90;;;;;;5092268;28;20467;-71
2021/12/14 00:37:52;;;;;;;8.67;5.20;;;3.00;99.90;;;;;;5091841;28;20878;-71
2021/12/14 00:40:25;;;;;;;8.00;5.00;;;3.00;99.90;;;;;;5091640;28;20451;-72
2021/12/14 00:42:54;;;;;;;6.33;4.40;;;2.90;99.90;;;;;;5088721;28;20865;-73
2021/12/14 00:45:22;;;;;;;7.57;5.20;;;2.80;99.90;;;;;;5089734;28;20456;-70
2021/12/14 00:47:51;;;;;;;9.00;4.97;;;2.80;99.90;;;;;;5089529;28;20842;-73
2021/12/14 00:50:22;;;;;;;6.80;4.77;;;2.80;99.90;;;;;;5089324;28;20479;-69
2021/12/14 00:52:50;;;;;;;6.77;4.17;;;2.80;99.90;;;;;;5091047;28;20518;-70
2021/12/14 00:55:23;;;;;;;8.23;5.30;;;2.90;99.90;;;;;;5090085;28;20449;-72
2021/12/14 00:57:50;;;;;;;6.67;4.13;;;2.80;99.90;;;;;;5087205;28;20996;-68
2021/12/14 01:00:21;;;;;;;8.60;4.63;;;2.80;99.90;;;;;;5091143;28;20455;-72
2021/12/14 01:02:48;;;;;;;12.43;5.67;;;2.70;99.90;;;;;;5091016;28;20809;-69
2021/12/14 01:05:21;;;;;;;7.73;4.67;;;2.70;99.90;;;;;;5091291;28;20564;-69
2021/12/14 01:07:51;;;;;;;6.80;5.00;;;2.60;99.90;;;;;;5090975;28;20525;-74
2021/12/14 01:10:24;;;;;;;7.10;4.93;;;2.70;99.90;;;;;;5090811;28;20482;-69
2021/12/14 01:12:56;;;;;;;7.40;4.40;;;2.70;99.90;;;;;;5090528;28;20487;-71
2021/12/14 01:15:29;;;;;;;8.30;5.13;;;2.60;99.90;;;;;;5071555;28;20485;-69
2021/12/14 01:18:17;;;;;;;7.47;4.53;;;2.50;99.90;;;;;;5078858;28;20555;-73
2021/12/14 01:20:50;;;;;;;7.30;4.53;;;2.50;99.90;;;;;;5090993;28;20451;-69
2021/12/14 01:23:28;;;;;;;7.43;4.90;;;2.50;99.90;;;;;;5091235;28;20478;-69
2021/12/14 01:26:02;;;;;;;7.23;5.20;;;2.60;99.90;;;;;;5091188;28;20461;-69
2021/12/14 01:28:30;;;;;;;7.07;4.17;;;2.70;99.90;;;;;;5091195;28;20480;-68
2021/12/14 01:31:05;;;;;;;6.20;4.07;;;2.70;99.90;;;;;;5091015;28;20840;-67
2021/12/14 01:33:34;;;;;;;5.77;3.93;;;2.70;99.90;;;;;;5090832;28;20842;-69
2021/12/14 01:36:10;;;;;;;9.73;5.03;;;2.80;99.90;;;;;;5091065;28;20448;-71
2021/12/14 01:38:46;;;;;;;8.93;4.70;;;2.90;99.90;;;;;;5090802;28;20482;-72
2021/12/14 01:41:16;;;;;;;10.23;5.40;;;3.00;99.90;;;;;;5090752;28;20444;-69
2021/12/14 01:43:47;;;;;;;7.60;4.60;;;2.90;99.90;;;;;;5090499;28;20835;-70
2021/12/14 01:46:18;;;;;;;7.73;5.00;;;2.80;99.90;;;;;;5090610;28;20498;-71
2021/12/14 01:48:46;;;;;;;8.17;5.00;;;2.60;99.90;;;;;;5090826;28;20528;-71
2021/12/14 01:51:16;;;;;;;7.83;4.53;;;2.60;99.90;;;;;;5090929;28;20483;-69
2021/12/14 01:53:45;;;;;;;7.30;5.00;;;2.60;99.90;;;;;;5090380;28;20551;-71
2021/12/14 01:56:17;;;;;;;8.57;5.47;;;2.70;99.90;;;;;;5089922;28;22461;-69
2021/12/14 01:58:48;;;;;;;7.50;5.03;;;2.80;99.90;;;;;;5090629;28;20460;-72
2021/12/14 02:01:19;;;;;;;6.67;4.63;;;2.70;99.90;;;;;;5090789;28;20457;-70
2021/12/14 02:03:52;;;;;;;8.63;5.80;;;2.70;99.90;;;;;;5090460;28;20532;-70
2021/12/14 02:06:23;;;;;;;7.17;4.60;;;2.80;99.90;;;;;;5090134;28;21191;-70
2021/12/14 02:08:57;;;;;;;9.50;4.80;;;2.80;99.90;;;;;;5089741;28;20859;-71
2021/12/14 02:11:26;;;;;;;9.37;5.00;;;2.90;99.90;;;;;;5089857;28;20487;-68
2021/12/14 02:13:56;;;;;;;7.43;5.03;;;3.00;99.90;;;;;;5089466;28;20484;-69
2021/12/14 02:16:23;;;;;;;7.87;5.60;;;3.00;99.90;;;;;;5089801;28;20458;-71
2021/12/14 02:18:55;;;;;;;7.13;4.70;;;2.80;99.90;;;;;;5089606;28;20472;-69
2021/12/14 02:21:23;;;;;;;7.93;5.43;;;2.90;99.90;;;;;;5089798;28;20461;-68
2021/12/14 02:23:54;;;;;;;6.63;4.57;;;2.80;99.90;;;;;;5089852;28;20947;-68
2021/12/14 02:26:26;;;;;;;7.40;5.37;;;2.60;99.90;;;;;;5089790;28;20459;-67
2021/12/14 02:28:53;;;;;;;7.60;5.93;;;2.70;99.90;;;;;;5089762;28;20937;-68
2021/12/14 02:31:24;;;;;;;7.00;5.13;;;2.80;99.90;;;;;;5089295;28;20480;-71
2021/12/14 02:33:54;;;;;;;9.10;5.47;;;2.80;99.90;;;;;;5089584;28;20460;-68
2021/12/14 02:36:26;;;;;;;9.10;6.37;;;2.80;99.90;;;;;;5089668;28;20458;-71
2021/12/14 02:39:05;;;;;;;7.90;5.20;;;2.70;99.90;;;;;;5089650;28;20462;-68
2021/12/14 02:41:33;;;;;;;8.57;5.40;;;2.70;99.90;;;;;;5089390;28;20474;-70
2021/12/14 02:44:01;;;;;;;7.50;4.90;;;2.70;99.90;;;;;;5087594;28;20451;-68
2021/12/14 02:46:32;;;;;;;6.90;5.10;;;4.80;99.90;;;;;;5089897;28;20463;-68
2021/12/14 02:49:03;;;;;;;8.97;5.13;;;2.80;99.90;;;;;;5089591;28;20938;-70
2021/12/14 02:51:35;;;;;;;8.07;5.27;;;2.80;99.90;;;;;;5089874;28;20497;-69
2021/12/14 02:54:08;;;;;;;7.57;4.67;;;2.80;99.90;;;;;;5090072;28;21222;-71
2021/12/14 02:56:38;;;;;;;6.87;4.93;;;2.70;99.90;;;;;;5089597;28;20536;-72
2021/12/14 02:59:08;;;;;;;7.93;5.00;;;2.70;99.90;;;;;;5089872;28;20502;-70
2021/12/14 03:01:37;;;;;;;8.50;6.10;;;2.60;99.90;;;;;;5089749;28;20493;-69
2021/12/14 03:04:06;;;;;;;7.50;4.93;;;2.60;99.90;;;;;;5089937;28;20456;-70
2021/12/14 03:06:44;;;;;;;6.97;4.83;;;2.60;99.90;;;;;;5089925;28;20504;-71
2021/12/14 03:09:31;;;;;;;8.50;5.33;;;2.60;99.90;;;;;;5093917;28;20791;-70
2021/12/14 03:11:59;;;;;;;8.80;5.40;;;2.60;99.90;;;;;;5094018;28;20490;-69
2021/12/14 03:14:26;;;;;;;8.60;5.57;;;2.50;99.90;;;;;;5094227;28;20923;-70
2021/12/14 03:16:54;;;;;;;7.20;4.90;;;2.50;99.90;;;;;;5094203;28;20545;-70
2021/12/14 03:19:21;;;;;;;7.90;5.50;;;2.50;99.90;;;;;;5094153;28;20449;-70
2021/12/14 03:21:50;;;;;;;6.13;4.40;;;2.50;99.90;;;;;;5093829;28;20450;-70
2021/12/14 03:24:19;;;;;;;8.50;5.63;;;2.40;99.90;;;;;;5093742;28;20509;-71
2021/12/14 03:26:50;;;;;;;6.40;4.93;;;2.40;99.90;;;;;;5093590;28;20513;-70
2021/12/14 03:29:21;;;;;;;7.90;4.70;;;2.50;99.90;;;;;;5093556;28;20509;-66
2021/12/14 03:31:51;;;;;;;7.13;5.07;;;2.40;99.90;;;;;;5093082;28;20487;-70
2021/12/14 03:34:25;;;;;;;7.00;4.87;;;2.50;99.90;;;;;;5092864;28;20461;-70
2021/12/14 03:36:57;;;;;;;8.60;5.70;;;2.50;99.90;;;;;;5092871;28;20479;-70
2021/12/14 03:39:30;;;;;;;6.30;5.10;;;2.50;99.90;;;;;;5093234;28;20513;-68
2021/12/14 03:42:00;;;;;;;6.90;5.13;;;2.50;99.90;;;;;;5093479;28;20498;-72
2021/12/14 03:44:30;;;;;;;8.23;5.40;;;2.40;99.90;;;;;;5093347;28;20445;-71
2021/12/14 03:47:01;;;;;;;9.40;5.40;;;2.40;99.90;;;;;;5092950;28;20935;-72
2021/12/14 03:49:32;;;;;;;8.20;5.00;;;2.40;99.90;;;;;;5093260;28;20456;-69
2021/12/14 03:52:02;;;;;;;8.00;5.37;;;2.40;99.90;;;;;;5093072;28;20886;-70
2021/12/14 03:54:29;;;;;;;12.53;6.20;;;2.40;99.90;;;;;;5092990;28;20854;-69
2021/12/14 03:56:57;;;;;;;8.23;6.23;;;2.40;99.90;;;;;;5092636;28;20531;-71
2021/12/14 03:59:27;;;;;;;8.13;5.80;;;2.40;99.90;;;;;;5092726;28;20449;-69
2021/12/14 04:01:56;;;;;;;9.80;6.70;;;2.50;99.90;;;;;;5092891;28;20533;-69
2021/12/14 04:04:26;;;;;;;7.60;5.07;;;2.60;99.90;;;;;;5092852;28;20450;-70
2021/12/14 04:06:57;;;;;;;7.73;5.07;;;2.50;99.90;;;;;;5092702;28;20520;-67
2021/12/14 04:09:31;;;;;;;8.30;6.27;;;2.50;99.90;;;;;;5092584;28;20460;-71
2021/12/14 04:11:59;;;;;;;10.27;5.80;;;2.50;99.90;;;;;;5092466;28;20479;-68
2021/12/14 04:14:29;;;;;;;7.33;5.77;;;2.40;99.90;;;;;;5092712;28;20455;-70
2021/12/14 04:16:58;;;;;;;9.70;6.33;;;2.30;99.90;;;;;;5092638;28;20477;-71
2021/12/14 04:19:28;;;;;;;8.40;5.80;;;2.30;99.90;;;;;;5092522;28;20508;-70
2021/12/14 04:21:58;;;;;;;9.00;6.73;;;2.40;99.90;;;;;;5092516;28;20459;-68
2021/12/14 04:24:32;;;;;;;8.50;5.77;;;2.50;99.90;;;;;;5092258;28;20455;-70
2021/12/14 04:27:02;;;;;;;8.37;6.20;;;2.70;99.90;;;;;;5092476;28;20538;-70
2021/12/14 04:29:29;;;;;;;8.33;5.90;;;2.60;99.90;;;;;;5092409;28;20847;-72
2021/12/14 04:31:56;;;;;;;10.43;7.77;;;2.60;99.90;;;;;;5092329;28;20487;-74
2021/12/14 04:34:24;;;;;;;10.53;6.60;;;2.60;99.90;;;;;;5091871;28;20520;-69
2021/12/14 04:36:53;;;;;;;10.10;6.77;;;2.60;99.90;;;;;;5091984;28;20490;-69
2021/12/14 04:39:35;;;;;;;9.80;7.07;;;2.70;99.90;;;;;;5092305;28;20456;-69
2021/12/14 04:53:38;;;;;;;9.43;6.63;;;2.50;99.90;;;;;;5091641;28;20435;-69
2021/12/14 04:56:10;;;;;;;10.20;7.80;;;2.60;99.90;;;;;;5092058;28;20508;-71
2021/12/14 04:58:42;;;;;;;11.17;6.30;;;2.60;99.90;;;;;;5092019;28;20461;-71
2021/12/14 05:01:11;;;;;;;10.13;7.17;;;2.70;99.90;;;;;;5092023;28;20504;-69
2021/12/14 05:03:43;;;;;;;10.87;7.53;;;2.80;99.90;;;;;;5091966;28;20511;-71
2021/12/14 05:06:15;;;;;;;13.17;8.57;;;2.80;99.90;;;;;;5091635;28;20457;-72
2021/12/14 05:11:30;;;;;;;10.07;6.57;;;2.70;99.90;;;;;;5091992;28;20636;-69
2021/12/14 05:14:05;;;;;;;10.70;7.07;;;2.70;99.90;;;;;;5091112;28;20483;-72
2021/12/14 05:16:32;;;;;;;12.33;8.70;;;2.70;99.90;;;;;;5090054;28;20482;-68
2021/12/14 05:19:02;;;;;;;13.17;8.47;;;2.70;99.90;;;;;;5091694;28;20453;-71
2021/12/14 05:21:33;;;;;;;9.60;7.80;;;2.80;99.90;;;;;;5091917;28;20520;-72
2021/12/14 05:24:03;;;;;;;12.63;7.50;;;2.80;99.90;;;;;;5091439;28;20996;-69
2021/12/14 05:26:30;;;;;;;10.50;7.13;;;2.70;99.90;;;;;;5091321;28;20454;-68
2021/12/14 05:28:58;;;;;;;9.80;7.83;;;2.60;99.90;;;;;;5091419;28;20475;-71
2021/12/14 05:31:27;;;;;;;12.40;8.20;;;2.70;99.90;;;;;;5090956;28;20492;-69
2021/12/14 05:33:55;;;;;;;12.23;8.20;;;2.60;99.90;;;;;;5091257;28;20475;-69
2021/12/14 05:36:24;;;;;;;14.77;9.20;;;2.70;99.90;;;;;;5091017;28;20459;-69
2021/12/14 05:38:58;;;;;;;11.07;7.80;;;2.60;99.90;;;;;;5089459;28;20455;-72
2021/12/14 05:44:16;;;;;;;11.57;8.13;;;2.80;99.90;;;;;;5091117;28;20455;-69
2021/12/14 05:46:50;;;;;;;10.20;8.10;;;2.80;99.90;;;;;;5091143;28;20459;-71
2021/12/14 05:49:20;;;;;;;11.23;8.07;;;2.90;99.90;;;;;;5090541;28;20487;-69
2021/12/14 05:51:48;;;;;;;12.50;7.97;;;2.80;99.90;;;;;;5090729;28;20496;-70
2021/12/14 05:54:23;;;;;;;13.73;8.70;;;2.90;99.90;;;;;;5089416;28;20515;-68
2021/12/14 05:56:51;;;;;;;11.20;7.87;;;2.90;99.90;;;;;;5091033;28;20454;-72
2021/12/14 05:59:21;;;;;;;13.57;8.87;;;2.90;99.90;;;;;;5090846;28;20861;-70
2021/12/14 06:01:51;;;;;;;11.40;8.80;;;2.80;99.90;;;;;;5090447;28;20443;-70
2021/12/14 06:04:19;;;;;;;12.30;7.67;;;2.80;99.90;;;;;;5090342;28;20476;-68
2021/12/14 06:06:51;;;;;;;11.23;7.67;;;2.80;99.90;;;;;;5090662;28;20980;-71
2021/12/14 06:09:24;;;;;;;12.20;8.17;;;2.80;99.90;;;;;;5090303;28;20491;-72
2021/12/14 06:11:56;;;;;;;12.77;7.17;;;2.80;99.90;;;;;;5090453;28;20993;-74
2021/12/14 06:14:27;;;;;;;9.83;8.27;;;2.80;99.90;;;;;;5090362;28;20536;-70
2021/12/14 06:16:58;;;;;;;13.33;9.07;;;2.90;99.90;;;;;;5090484;28;20470;-71
2021/12/14 06:19:28;;;;;;;12.27;9.20;;;2.80;99.90;;;;;;5090574;28;20448;-69
2021/12/14 06:21:58;;;;;;;11.43;8.03;;;2.90;99.90;;;;;;5090502;28;20444;-72
2021/12/14 06:24:28;;;;;;;11.70;8.23;;;2.90;99.90;;;;;;5090146;28;20460;-71
2021/12/14 06:26:58;;;;;;;11.73;8.47;;;2.90;99.90;;;;;;5089782;28;20794;-69
2021/12/14 06:29:27;;;;;;;10.63;7.50;;;3.00;99.90;;;;;;5090035;28;20487;-69
2021/12/14 06:31:58;;;;;;;11.87;8.17;;;3.10;99.90;;;;;;5090203;28;20499;-67
2021/12/14 06:34:28;;;;;;;12.27;7.90;;;2.90;99.90;;;;;;5089947;28;20898;-71
2021/12/14 06:37:30;;;;;;;10.60;7.60;;;2.80;99.90;;;;;;5090194;28;20487;-71
2021/12/14 06:40:02;;;;;;;11.63;8.43;;;2.80;99.90;;;;;;5089506;28;20556;-71
2021/12/14 06:42:29;;;;;;;12.20;8.03;;;2.90;99.90;;;;;;5089186;28;20952;-72
2021/12/14 06:45:09;;;;;;;11.73;8.10;;;2.90;99.90;;;;;;5090136;28;20515;-72
2021/12/14 06:47:39;;;;;;;10.00;8.00;;;3.00;99.90;;;;;;5089527;28;20960;-70
2021/12/14 06:50:09;;;;;;;13.70;8.00;;;3.00;99.90;;;;;;5089726;28;20846;-73
2021/12/14 06:52:37;;;;;;;13.53;8.80;;;3.20;99.90;;;;;;5089650;28;20482;-68
2021/12/14 06:55:05;;;;;;;11.20;7.83;;;3.20;99.90;;;;;;5089846;28;20942;-70
2021/12/14 06:57:34;;;;;;;12.93;8.90;;;3.30;99.90;;;;;;5089820;28;20479;-70
2021/12/14 07:00:02;;;;;;;10.97;7.77;;;3.20;99.90;;;;;;5089999;28;20497;-70
2021/12/14 07:02:29;;;;;;;14.33;8.10;;;3.20;99.90;;;;;;5089831;28;20455;-69
2021/12/14 07:04:57;;;;;;;12.80;7.60;;;3.30;99.90;;;;;;5089702;28;20967;-73
2021/12/14 07:07:27;;;;;;;10.60;7.97;;;3.20;99.90;;;;;;5089738;28;20483;-71
2021/12/14 07:09:56;;;;;;;13.40;8.57;;;3.20;99.90;;;;;;5089446;28;20482;-71
2021/12/14 07:12:26;;;;;;;13.37;8.70;;;3.20;99.90;;;;;;5089336;28;20523;-72
2021/12/14 07:15:09;;;;;;;11.83;8.03;;;3.20;99.90;;;;;;5089658;28;20512;-72
2021/12/14 07:17:42;;;;;;;11.30;8.40;;;3.30;99.90;;;;;;5089615;28;20568;-71
2021/12/14 07:20:26;;;;;;;13.13;8.87;;;3.20;99.90;;;;;;5089666;28;20879;-70
2021/12/14 07:22:55;;;;;;;13.40;8.77;;;3.20;99.90;;;;;;5089730;28;20440;-73
2021/12/14 07:25:27;;;;;;;15.67;10.53;;;3.10;99.90;;;;;;5089384;28;20519;-72
2021/12/14 07:27:56;;;;;;;15.27;9.93;;;3.00;99.90;;;;;;5089376;28;20477;-65
2021/12/14 07:30:32;;;;;;;13.47;10.00;;;3.00;99.90;;;;;;5089490;28;20451;-73
2021/12/14 07:33:03;;;;;;;11.17;8.03;;;3.00;99.90;;;;;;5089685;28;20487;-68
2021/12/14 07:35:38;;;;;;;10.73;8.47;;;3.10;99.90;;;;;;5089797;28;20463;-70
2021/12/14 07:38:22;;;;;;;11.33;8.90;;;3.30;99.90;;;;;;5089194;28;20469;-69
2021/12/14 07:40:52;;;;;;;11.33;8.30;;;3.20;99.90;;;;;;5089535;28;20933;-73
2021/12/14 07:43:23;;;;;;;15.10;9.60;;;3.30;99.90;;;;;;5089547;28;20451;-71
2021/12/14 07:45:53;;;;;;;13.30;9.13;;;3.30;99.90;;;;;;5086764;28;20455;-68
2021/12/14 07:48:21;;;;;;;12.10;8.67;;;3.30;99.90;;;;;;5088706;28;20472;-67
2021/12/14 07:50:53;;;;;;;13.60;8.67;;;3.30;99.90;;;;;;5088579;28;20802;-70
2021/12/14 07:53:40;;;;;;;15.27;9.30;;;3.30;99.90;;;;;;5090542;28;20493;-69
2021/12/14 07:56:07;;;;;;;18.97;10.97;;;3.30;99.90;;;;;;5093279;28;20454;-68
2021/12/14 07:58:39;;;;;;;14.70;9.63;;;3.30;99.90;;;;;;5092818;28;20990;-69
2021/12/14 08:01:07;;;;;;;13.30;10.30;;;3.30;99.90;;;;;;5093000;28;20451;-69
2021/12/14 08:03:35;;;;;;;16.57;10.33;;;3.30;99.90;;;;;;5092623;28;20463;-70
2021/12/14 08:06:07;;;;;;;15.23;9.60;;;3.30;99.90;;;;;;5092865;28;20456;-70
2021/12/14 08:08:44;;;;;;;13.73;10.00;;;3.40;99.90;;;;;;5092458;28;20524;-71
2021/12/14 08:14:03;;;;;;;14.77;9.80;;;3.50;99.90;;;;;;5092409;28;20483;-69
2021/12/14 08:16:40;;;;;;;11.70;9.10;;;3.60;99.90;;;;;;5092616;28;20925;-72
2021/12/14 08:19:07;;;;;;;13.67;10.33;;;3.50;99.90;;;;;;5091960;28;20862;-73
2021/12/14 08:21:36;;;;;;;15.93;11.60;;;3.50;99.90;;;;;;5091942;28;20460;-73
2021/12/14 08:24:06;;;;;;;14.73;11.03;;;3.60;99.90;;;;;;5092446;28;20455;-71
2021/12/14 08:26:36;;;;;;;16.97;11.03;;;3.60;99.90;;;;;;5092417;28;20455;-71
2021/12/14 08:29:07;;;;;;;15.93;11.40;;;3.70;99.90;;;;;;5092066;28;20745;-73
2021/12/14 08:31:44;;;;;;;14.40;11.10;;;3.70;99.90;;;;;;5092065;28;20491;-71
2021/12/14 08:34:17;;;;;;;14.17;9.90;;;3.80;99.90;;;;;;5092162;28;20465;-73
2021/12/14 08:36:48;;;;;;;17.23;10.90;;;3.80;99.90;;;;;;5091822;28;20463;-68
2021/12/14 08:39:19;;;;;;;15.27;10.67;;;3.80;99.90;;;;;;5092092;28;20540;-71
2021/12/14 08:41:52;;;;;;;14.77;11.83;;;3.90;99.90;;;;;;5092158;28;20452;-70
2021/12/14 08:44:33;;;;;;;17.93;12.90;;;4.10;99.90;;;;;;5089997;28;20461;-69
2021/12/14 08:47:01;;;;;;;15.90;12.77;;;4.10;99.90;;;;;;5092006;28;20523;-72
2021/12/14 08:49:28;;;;;;;17.40;12.40;;;4.20;99.90;;;;;;5092052;28;20525;-69
2021/12/14 08:51:57;;;;;;;15.80;12.57;;;4.00;99.90;;;;;;5091678;28;20990;-72
2021/12/14 08:54:29;;;;;;;16.70;12.07;;;4.00;99.90;;;;;;5092007;28;20451;-71
2021/12/14 08:57:01;;;;;;;18.70;12.20;;;4.00;99.90;;;;;;5091770;28;20476;-72
2021/12/14 08:59:29;;;;;;;17.13;11.53;;;3.90;99.90;;;;;;5091634;28;20458;-68
2021/12/14 09:01:57;;;;;;;17.03;12.03;;;3.90;99.90;;;;;;5091418;28;21013;-70
2021/12/14 09:04:29;;;;;;;18.83;13.13;;;3.90;99.90;;;;;;5090315;28;20460;-72
2021/12/14 09:07:00;;;;;;;19.37;13.20;;;4.00;99.90;;;;;;5091357;28;20471;-72
2021/12/14 09:09:27;;;;;;;17.17;12.80;;;4.20;99.90;;;;;;5091245;28;20462;-70
2021/12/14 09:11:59;;;;;;;17.40;13.43;;;4.30;99.90;;;;;;5091165;28;20895;-73
2021/12/14 09:14:27;;;;;;;19.10;11.70;;;4.40;99.90;;;;;;5091156;28;20512;-72
2021/12/14 09:16:58;;;;;;;15.63;11.93;;;4.50;99.90;;;;;;5091194;28;20475;-72
2021/12/14 09:19:28;;;;;;;18.13;12.30;;;4.50;99.90;;;;;;5091541;28;20499;-71
2021/12/14 09:22:00;;;;;;;24.53;14.90;;;4.60;99.90;;;;;;5091168;28;20520;-72
2021/12/14 09:24:29;;;;;;;17.73;12.10;;;4.60;99.90;;;;;;5091178;28;20489;-71
2021/12/14 09:26:59;;;;;;;17.40;13.50;;;4.70;99.90;;;;;;5090957;28;20864;-72
2021/12/14 09:29:29;;;;;;;17.23;13.97;;;4.60;99.90;;;;;;5090959;28;20932;-69
2021/12/14 09:31:59;;;;;;;16.27;13.53;;;4.60;99.90;;;;;;5091087;28;20483;-71
2021/12/14 09:34:29;;;;;;;17.77;13.73;;;4.50;99.90;;;;;;5090792;28;20948;-69
2021/12/14 09:37:01;;;;;;;16.37;13.30;;;4.50;99.90;;;;;;5090413;28;20486;-70
2021/12/14 09:39:32;;;;;;;18.23;15.43;;;4.60;99.90;;;;;;5091097;28;20897;-72
2021/12/14 09:42:01;;;;;;;19.30;14.60;;;4.60;99.90;;;;;;5090957;28;20509;-70
2021/12/14 09:44:31;;;;;;;18.70;14.00;;;4.40;99.90;;;;;;5090564;28;20512;-73
2021/12/14 09:47:02;;;;;;;17.33;13.80;;;4.30;99.90;;;;;;5090685;28;20533;-71
2021/12/14 09:49:29;;;;;;;18.27;12.70;;;4.30;99.90;;;;;;5090151;28;20455;-71
2021/12/14 09:52:02;;;;;;;20.17;15.13;;;4.30;99.90;;;;;;5090266;28;20439;-71
2021/12/14 09:54:31;;;;;;;20.73;16.13;;;4.40;99.90;;;;;;5090623;28;20464;-69
2021/12/14 09:57:01;;;;;;;16.30;12.90;;;4.40;99.90;;;;;;5089904;28;20478;-72
2021/12/14 09:59:29;;;;;;;19.90;13.10;;;4.60;99.90;;;;;;5090408;28;20537;-68
2021/12/14 10:02:00;;;;;;;24.37;15.43;;;4.60;99.90;;;;;;5090101;28;20461;-68
2021/12/14 10:04:36;;;;;;;20.13;14.63;;;4.60;99.90;;;;;;5090172;28;20958;-71
2021/12/14 10:07:08;;;;;;;21.27;15.97;;;4.50;99.90;;;;;;5089889;28;20475;-71
2021/12/14 10:09:41;;;;;;;21.50;13.90;;;4.70;99.90;;;;;;5090450;28;20948;-71
2021/12/14 10:12:48;;;;;;;18.83;14.33;;;4.70;99.90;;;;;;5090117;28;20602;-69
2021/12/14 10:15:11;;;;;;;22.30;15.53;;;4.80;99.90;;;;;;5090361;28;20446;-71
2021/12/14 10:17:40;;;;;;;18.30;14.07;;;4.80;99.90;;;;;;5089554;28;20464;-69
2021/12/14 10:20:09;;;;;;;18.37;14.00;;;4.80;99.90;;;;;;5089573;28;21036;-72
2021/12/14 10:22:37;;;;;;;21.97;15.80;;;4.70;99.90;;;;;;5089850;28;20459;-70
2021/12/14 10:25:10;;;;;;;26.43;16.83;;;4.70;99.90;;;;;;5090016;28;20936;-72
2021/12/14 10:27:39;;;;;;;20.57;15.63;;;4.70;99.90;;;;;;5090157;28;20472;-72
2021/12/14 10:30:09;;;;;;;23.93;16.50;;;4.70;99.90;;;;;;5089622;28;20854;-72
2021/12/14 10:32:37;;;;;;;21.57;15.23;;;4.80;99.90;;;;;;5089346;28;20498;-71
2021/12/14 10:35:10;;;;;;;20.03;15.90;;;4.90;99.90;;;;;;5089536;28;20474;-70
2021/12/14 10:37:54;;;;;;;21.73;16.13;;;4.90;99.90;;;;;;5089592;28;20562;-72
2021/12/14 10:43:15;;;;;;;21.23;17.17;;;5.00;99.90;;;;;;5089807;28;20779;-70
2021/12/14 10:45:46;;;;;;;26.27;17.50;;;5.10;99.90;;;;;;5089897;28;20455;-72
2021/12/14 10:48:13;;;;;;;29.63;18.80;;;5.10;99.90;;;;;;5089888;28;20481;-70
2021/12/14 10:50:42;;;;;;;33.23;24.27;;;5.20;99.90;;;;;;5089676;28;20451;-72
2021/12/14 10:53:13;;;;;;;28.97;20.87;;;5.30;99.90;;;;;;5089682;28;20578;-70
2021/12/14 10:55:43;;;;;;;25.57;17.83;;;5.40;99.90;;;;;;5089923;28;21119;-72
2021/12/14 10:58:12;;;;;;;32.03;18.30;;;5.30;99.90;;;;;;5089238;28;20847;-71
2021/12/14 11:00:43;;;;;;;32.57;19.07;;;5.10;99.90;;;;;;5089807;28;20459;-70
2021/12/14 11:03:13;;;;;;;26.67;19.63;;;5.00;99.90;;;;;;5089667;28;20547;-72
2021/12/14 11:05:45;;;;;;;24.60;18.27;;;4.90;99.90;;;;;;5089561;28;20444;-69
2021/12/14 11:08:34;;;;;;;20.20;16.33;;;4.90;99.90;;;;;;5089571;28;20486;-71
2021/12/14 11:11:01;;;;;;;25.03;17.03;;;5.00;99.90;;;;;;5089752;28;20534;-70
2021/12/14 11:13:39;;;;;;;24.13;16.37;;;5.10;99.90;;;;;;5089150;28;20494;-69
2021/12/14 11:16:14;;;;;;;21.10;15.27;;;5.20;99.90;;;;;;5089542;28;20448;-70
2021/12/14 11:18:45;;;;;;;20.87;15.13;;;5.20;99.90;;;;;;5089685;28;21049;-70
2021/12/14 11:21:14;;;;;;;34.23;18.33;;;5.20;99.90;;;;;;5089333;28;20512;-71
2021/12/14 11:23:45;;;;;;;22.93;17.53;;;5.20;99.90;;;;;;5089422;28;20444;-72
2021/12/14 11:26:16;;;;;;;23.00;15.60;;;5.30;99.90;;;;;;5089173;28;20456;-71
2021/12/14 11:28:51;;;;;;;28.63;18.77;;;5.50;99.90;;;;;;5091870;28;20449;-69
2021/12/14 11:31:24;;;;;;;19.70;15.23;;;5.20;99.90;;;;;;5093122;28;20546;-72
2021/12/14 11:33:54;;;;;;;23.23;17.20;;;5.20;99.90;;;;;;5092764;28;20516;-71
2021/12/14 11:36:28;;;;;;;23.03;17.03;;;5.10;99.90;;;;;;5093145;28;20462;-69
2021/12/14 11:39:04;;;;;;;28.30;18.50;;;5.00;99.90;;;;;;5093474;28;20469;-68
2021/12/14 11:41:41;;;;;;;25.63;18.40;;;5.10;99.90;;;;;;5093187;28;20450;-69
2021/12/14 11:44:21;;;;;;;23.40;18.00;;;5.10;99.90;;;;;;5092958;28;20576;-71
2021/12/14 11:47:00;;;;;;;23.17;16.70;;;5.00;99.90;;;;;;5092982;28;20471;-72
2021/12/14 11:49:46;;;;;;;32.33;19.20;;;5.00;99.90;;;;;;5093084;28;20443;-69
2021/12/14 11:52:31;;;;;;;22.93;17.00;;;5.10;99.90;;;;;;5092708;28;20959;-68
2021/12/14 11:55:00;;;;;;;25.67;18.50;;;5.00;99.90;;;;;;5092446;28;20505;-72
2021/12/14 11:57:31;;;;;;;24.63;17.60;;;4.90;99.90;;;;;;5092713;28;20484;-71
2021/12/14 12:00:05;;;;;;;22.30;16.90;;;4.90;99.90;;;;;;5092901;28;20447;-70
2021/12/14 12:02:32;;;;;;;24.03;18.13;;;4.70;99.90;;;;;;5091377;28;20457;-72
2021/12/14 12:04:59;;;;;;;20.00;15.53;;;4.80;99.90;;;;;;5092359;28;20854;-71
2021/12/14 12:10:12;;;;;;;21.67;16.33;;;4.80;99.90;;;;;;5092712;28;20787;-72
2021/12/14 12:12:41;;;;;;;22.97;17.00;;;4.80;99.90;;;;;;5092181;28;20550;-70
2021/12/14 12:15:11;;;;;;;21.50;17.03;;;4.70;99.90;;;;;;5092157;28;20459;-70
2021/12/14 12:17:42;;;;;;;21.50;17.33;;;4.70;99.90;;;;;;5092236;28;20476;-71
2021/12/14 12:20:16;;;;;;;21.63;15.77;;;4.70;99.90;;;;;;5092334;28;20979;-71
2021/12/14 12:22:45;;;;;;;23.50;17.53;;;4.70;99.90;;;;;;5092636;28;20451;-69
2021/12/14 12:25:16;;;;;;;19.80;14.90;;;4.90;99.90;;;;;;5092366;28;20460;-72
2021/12/14 12:27:46;;;;;;;21.23;15.77;;;4.90;99.90;;;;;;5091852;28;21047;-70
2021/12/14 12:30:29;;;;;;;20.83;15.50;;;4.70;99.90;;;;;;5092388;28;20831;-71
2021/12/14 12:32:59;;;;;;;27.70;17.70;;;4.80;99.90;;;;;;5091861;28;20490;-71
2021/12/14 12:35:34;;;;;;;20.50;17.03;;;4.90;99.90;;;;;;5092166;28;20733;-70
2021/12/14 12:38:19;;;;;;;21.90;16.97;;;4.90;99.90;;;;;;5091850;28;20482;-71
2021/12/14 12:40:52;;;;;;;22.27;15.87;;;4.80;99.90;;;;;;5090663;28;20447;-72
2021/12/14 12:43:25;;;;;;;19.50;14.63;;;4.80;99.90;;;;;;5092262;28;20501;-69
2021/12/14 12:46:14;;;;;;;24.90;15.70;;;4.80;99.90;;;;;;5091904;28;20510;-69
2021/12/14 12:48:55;;;;;;;23.83;15.13;;;4.90;99.90;;;;;;5091807;28;20451;-70
2021/12/14 12:51:56;;;;;;;23.00;16.13;;;4.80;99.90;;;;;;5092015;28;20469;-71
2021/12/14 12:54:36;;;;;;;18.80;15.17;;;4.90;99.90;;;;;;5089959;28;20890;-71
2021/12/14 12:57:42;;;;;;;22.70;15.97;;;5.00;99.90;;;;;;5091331;28;20475;-71
2021/12/14 13:00:15;;;;;;;25.43;17.17;;;4.80;99.90;;;;;;5091679;28;20539;-69
2021/12/14 13:02:46;;;;;;;26.70;17.87;;;4.80;99.90;;;;;;5091069;28;20455;-70
2021/12/14 13:05:20;;;;;;;24.10;17.00;;;4.90;99.90;;;;;;5091453;28;20508;-72
2021/12/14 13:07:51;;;;;;;22.10;16.53;;;4.90;99.90;;;;;;5091599;28;20467;-71
2021/12/14 13:10:24;;;;;;;24.63;17.03;;;4.90;99.90;;;;;;5089837;28;20978;-69
2021/12/14 13:13:00;;;;;;;24.57;16.87;;;5.00;99.90;;;;;;5091364;28;20537;-70
2021/12/14 13:15:47;;;;;;;22.27;16.10;;;5.00;99.90;;;;;;5091377;28;20462;-72
2021/12/14 13:18:25;;;;;;;23.73;17.00;;;5.00;99.90;;;;;;5090989;28;20479;-72
2021/12/14 13:20:56;;;;;;;19.27;15.70;;;4.90;99.90;;;;;;5091391;28;20485;-72
2021/12/14 13:23:37;;;;;;;23.30;16.77;;;4.90;99.90;;;;;;5091287;28;20800;-70
2021/12/14 13:26:24;;;;;;;23.57;16.63;;;5.00;99.90;;;;;;5091045;28;20919;-69
2021/12/14 13:28:55;;;;;;;20.30;15.23;;;4.90;99.90;;;;;;5090995;28;20458;-71
2021/12/14 13:31:31;;;;;;;20.90;15.17;;;4.80;99.90;;;;;;5091228;28;20450;-72
2021/12/14 13:33:59;;;;;;;23.50;14.97;;;4.90;99.90;;;;;;5090715;28;20849;-70
2021/12/14 13:36:26;;;;;;;23.73;16.63;;;5.00;99.90;;;;;;5090736;28;20552;-68
2021/12/14 13:38:53;;;;;;;21.87;16.47;;;5.10;99.90;;;;;;5090720;28;20549;-71